createdAt,value
2023-03-25T00:00:00.008Z,76.49
2023-03-25T00:02:32.463Z,75.99
2023-03-25T00:05:05.981Z,76.26
2023-03-25T00:07:37.864Z,76.17
2023-03-25T00:10:13.155Z,76.84
2023-03-25T00:12:45.313Z,77.32
2023-03-25T00:15:18.874Z,77.04
2023-03-25T00:17:50.838Z,76.51
2023-03-25T00:20:32.427Z,76.42
2023-03-25T00:23:04.006Z,76.91
2023-03-25T00:25:36.112Z,76.37
2023-03-25T00:28:08.510Z,76.97
2023-03-25T00:30:40.809Z,77.28
2023-03-25T00:33:13.311Z,76.43
2023-03-25T00:35:49.404Z,76.25
2023-03-25T00:38:21.625Z,76.17
2023-03-25T00:40:53.573Z,76.31
2023-03-25T00:43:26.779Z,76.22
2023-03-25T00:46:00.626Z,75.92
2023-03-25T00:48:32.461Z,76.31
2023-03-25T00:51:09.746Z,76.54
2023-03-25T00:53:42.345Z,76.40
2023-03-25T00:56:15.363Z,75.59
2023-03-25T00:58:47.186Z,75.57
2023-03-25T01:01:23.691Z,76.19
2023-03-25T01:03:58.714Z,75.81
2023-03-25T01:06:36.995Z,75.67
2023-03-25T01:09:11.521Z,75.68
2023-03-25T01:11:44.393Z,75.76
2023-03-25T01:14:22.090Z,75.93
2023-03-25T01:16:54.362Z,75.55
2023-03-25T01:19:26.516Z,76.15
2023-03-25T01:24:46.492Z,75.68
2023-03-25T01:27:19.722Z,75.69
2023-03-25T01:29:51.657Z,75.87
2023-03-25T01:32:23.675Z,75.29
2023-03-25T01:34:55.527Z,75.25
2023-03-25T01:37:29.461Z,75.52
2023-03-25T01:40:01.384Z,75.22
2023-03-25T01:42:33.359Z,75.08
2023-03-25T01:45:23.820Z,75.62
2023-03-25T01:48:01.524Z,75.33
2023-03-25T01:50:35.925Z,76.12
2023-03-25T01:53:11.387Z,75.98
2023-03-25T01:55:45.566Z,75.85
2023-03-25T01:58:22.129Z,74.90
2023-03-25T02:00:55.961Z,74.42
2023-03-25T02:03:30.724Z,74.80
2023-03-25T02:06:11.042Z,74.79
2023-03-25T02:08:44.928Z,74.83
2023-03-25T02:11:16.616Z,75.00
2023-03-25T02:13:48.512Z,75.15
2023-03-25T02:16:33.872Z,74.54
2023-03-25T02:19:35.403Z,75.16
2023-03-25T02:22:43.228Z,76.09
2023-03-25T02:25:55.480Z,76.80
2023-03-25T02:28:36.872Z,76.82
2023-03-25T02:31:45.105Z,77.89
2023-03-25T02:34:41.832Z,77.95
2023-03-25T02:37:49.838Z,77.22
2023-03-25T02:40:33.342Z,77.37
2023-03-25T02:43:12.073Z,78.74
2023-03-25T02:45:53.644Z,78.56
2023-03-25T02:48:33.837Z,78.73
2023-03-25T02:51:12.092Z,78.90
2023-03-25T02:53:49.123Z,79.08
2023-03-25T02:56:26.813Z,80.08
2023-03-25T02:59:01.209Z,79.70
2023-03-25T03:01:34.897Z,80.18
2023-03-25T03:04:07.369Z,79.57
2023-03-25T03:06:44.508Z,79.51
2023-03-25T03:09:27.495Z,79.21
2023-03-25T03:12:20.273Z,80.46
2023-03-25T03:15:11.212Z,79.92
2023-03-25T03:18:00.928Z,80.63
2023-03-25T03:20:44.161Z,80.12
2023-03-25T03:23:27.448Z,80.95
2023-03-25T03:26:08.983Z,79.61
2023-03-25T03:28:58.430Z,80.47
2023-03-25T03:31:48.889Z,80.49
2023-03-25T03:34:41.075Z,79.96
2023-03-25T03:37:16.239Z,80.57
2023-03-25T03:39:53.353Z,80.02
2023-03-25T03:42:31.958Z,80.32
2023-03-25T03:45:12.809Z,79.42
2023-03-25T03:47:53.657Z,79.07
2023-03-25T03:50:32.432Z,78.48
2023-03-25T03:53:10.700Z,77.85
2023-03-25T03:55:50.944Z,77.51
2023-03-25T03:58:30.446Z,77.83
2023-03-25T04:01:12.413Z,77.23
2023-03-25T04:03:52.146Z,77.98
2023-03-25T04:06:35.292Z,78.53
2023-03-25T04:09:18.501Z,78.06
2023-03-25T04:12:00.816Z,78.37
2023-03-25T04:14:33.420Z,78.33
2023-03-25T04:17:08.265Z,77.76
2023-03-25T04:19:40.113Z,77.17
2023-03-25T04:22:13.639Z,77.64
2023-03-25T04:24:45.443Z,77.38
2023-03-25T04:27:19.788Z,77.16
2023-03-25T04:29:52.853Z,76.62
2023-03-25T04:32:28.263Z,76.05
2023-03-25T04:35:00.310Z,76.13
2023-03-25T04:37:33.712Z,75.85
2023-03-25T04:40:07.914Z,76.73
2023-03-25T04:42:42.618Z,76.29
2023-03-25T04:45:16.788Z,76.74
2023-03-25T04:47:54.018Z,76.86
2023-03-25T04:50:29.469Z,77.04
2023-03-25T04:53:01.549Z,77.10
2023-03-25T04:55:34.625Z,76.44
2023-03-25T04:58:07.444Z,76.87
2023-03-25T05:00:39.292Z,76.48
2023-03-25T05:03:12.428Z,76.93
2023-03-25T05:05:44.524Z,76.85
2023-03-25T05:08:16.339Z,77.57
2023-03-25T05:10:48.210Z,76.69
2023-03-25T05:13:20.009Z,77.21
2023-03-25T05:15:53.115Z,76.47
2023-03-25T05:18:26.485Z,77.26
2023-03-25T05:20:59.857Z,77.42
2023-03-25T05:23:31.689Z,77.10
2023-03-25T05:26:03.722Z,76.82
2023-03-25T05:28:35.748Z,76.67
2023-03-25T05:31:09.181Z,76.88
2023-03-25T05:33:43.466Z,77.54
2023-03-25T05:36:17.326Z,78.41
2023-03-25T05:38:49.398Z,79.55
2023-03-25T05:41:22.731Z,81.01
2023-03-25T05:43:54.509Z,81.01
2023-03-25T05:46:26.346Z,81.58
2023-03-25T05:49:01.098Z,82.50
2023-03-25T05:51:37.505Z,81.43
2023-03-25T05:54:11.191Z,82.44
2023-03-25T05:56:44.502Z,83.06
2023-03-25T05:59:16.552Z,83.56
2023-03-25T06:01:50.024Z,84.21
2023-03-25T06:04:23.740Z,84.03
2023-03-25T06:06:55.739Z,84.25
2023-03-25T06:09:30.935Z,84.14
2023-03-25T06:12:03.835Z,84.05
2023-03-25T06:14:35.759Z,83.91
2023-03-25T06:17:07.343Z,84.14
2023-03-25T06:19:40.638Z,84.15
2023-03-25T06:22:14.053Z,84.17
2023-03-25T06:24:46.589Z,84.31
2023-03-25T06:27:23.796Z,82.85
2023-03-25T06:29:55.667Z,83.24
2023-03-25T06:32:27.606Z,82.28
2023-03-25T06:35:01.019Z,81.59
2023-03-25T06:37:32.576Z,81.33
2023-03-25T06:40:06.044Z,80.86
2023-03-25T06:42:37.880Z,80.60
2023-03-25T06:45:11.905Z,80.39
2023-03-25T06:47:43.733Z,79.71
2023-03-25T06:50:17.139Z,78.76
2023-03-25T06:52:48.955Z,78.69
2023-03-25T06:55:20.864Z,79.37
2023-03-25T06:57:55.275Z,79.45
2023-03-25T07:00:28.385Z,78.66
2023-03-25T07:03:00.025Z,78.09
2023-03-25T07:05:33.056Z,77.83
2023-03-25T07:08:05.056Z,78.14
2023-03-25T07:10:36.815Z,78.05
2023-03-25T07:13:09.490Z,76.98
2023-03-25T07:15:41.961Z,76.99
2023-03-25T07:18:13.781Z,77.56
2023-03-25T07:20:46.722Z,77.41
2023-03-25T07:23:18.468Z,75.60
2023-03-25T07:25:50.653Z,76.51
2023-03-25T07:28:22.456Z,75.35
2023-03-25T07:30:54.229Z,75.54
2023-03-25T07:33:26.180Z,75.91
2023-03-25T07:35:59.462Z,75.41
2023-03-25T07:38:31.290Z,74.36
2023-03-25T07:41:09.442Z,75.37
2023-03-25T07:43:42.793Z,74.98
2023-03-25T07:46:15.688Z,74.98
2023-03-25T07:48:47.270Z,74.99
2023-03-25T07:51:20.297Z,74.27
2023-03-25T07:53:52.243Z,74.71
2023-03-25T07:56:23.906Z,75.75
2023-03-25T07:58:55.725Z,77.60
2023-03-25T08:01:28.089Z,77.31
2023-03-25T08:03:59.722Z,77.87
2023-03-25T08:06:32.688Z,78.75
2023-03-25T08:09:04.885Z,79.05
2023-03-25T08:11:36.765Z,79.30
2023-03-25T08:14:08.425Z,79.24
2023-03-25T08:16:40.614Z,78.40
2023-03-25T08:19:12.615Z,77.81
2023-03-25T08:21:45.739Z,78.12
2023-03-25T08:24:17.541Z,77.66
2023-03-25T08:26:49.923Z,78.40
2023-03-25T08:29:21.885Z,77.23
2023-03-25T08:31:53.751Z,75.85
2023-03-25T08:34:28.894Z,75.38
2023-03-25T08:37:02.998Z,76.06
2023-03-25T08:39:37.039Z,75.46
2023-03-25T08:42:09.280Z,75.29
2023-03-25T08:44:42.740Z,75.84
2023-03-25T08:47:14.729Z,75.93
2023-03-25T08:49:46.560Z,76.00
2023-03-25T08:52:19.843Z,77.33
2023-03-25T08:54:51.973Z,76.95
2023-03-25T08:57:23.496Z,76.46
2023-03-25T08:59:55.173Z,76.45
2023-03-25T09:02:27.191Z,77.75
2023-03-25T09:05:00.907Z,78.71
2023-03-25T09:07:33.859Z,79.07
2023-03-25T09:10:06.155Z,80.73
2023-03-25T09:12:38.348Z,81.68
2023-03-25T09:15:13.809Z,81.90
2023-03-25T09:17:45.813Z,81.32
2023-03-25T09:20:18.777Z,81.26
2023-03-25T09:22:51.738Z,80.33
2023-03-25T09:25:23.910Z,80.73
2023-03-25T09:27:55.559Z,80.42
2023-03-25T09:30:27.402Z,79.50
2023-03-25T09:32:59.252Z,79.61
2023-03-25T09:35:31.214Z,78.68
2023-03-25T09:38:04.327Z,78.08
2023-03-25T09:40:37.013Z,78.30
2023-03-25T09:43:25.358Z,78.51
2023-03-25T09:45:59.515Z,77.87
2023-03-25T09:48:38.868Z,76.78
2023-03-25T09:51:19.174Z,77.49
2023-03-25T09:53:59.921Z,76.58
2023-03-25T09:56:42.185Z,77.34
2023-03-25T09:59:19.495Z,77.17
2023-03-25T10:01:58.962Z,77.44
2023-03-25T10:04:58.605Z,76.91
2023-03-25T10:07:48.510Z,76.71
2023-03-25T10:10:34.737Z,77.68
2023-03-25T10:13:21.365Z,76.72
2023-03-25T10:16:01.578Z,76.74
2023-03-25T10:19:06.363Z,76.12
2023-03-25T10:21:49.723Z,75.37
2023-03-25T10:24:28.502Z,74.30
2023-03-25T10:27:07.124Z,72.81
2023-03-25T10:29:45.323Z,72.11
2023-03-25T10:32:30.574Z,69.99
2023-03-25T10:35:07.031Z,69.77
2023-03-25T10:37:44.603Z,68.87
2023-03-25T10:40:23.122Z,68.22
2023-03-25T10:43:22.849Z,68.99
2023-03-25T10:45:59.666Z,69.34
2023-03-25T10:48:34.304Z,69.40
2023-03-25T10:51:12.010Z,66.75
2023-03-25T10:53:47.804Z,65.93
2023-03-25T10:56:23.610Z,64.93
2023-03-25T10:59:02.902Z,66.29
2023-03-25T11:01:42.657Z,65.84
2023-03-25T11:04:22.581Z,65.04
2023-03-25T11:07:00.381Z,65.72
2023-03-25T11:09:37.077Z,66.92
2023-03-25T11:12:11.846Z,66.07
2023-03-25T11:14:45.753Z,64.79
2023-03-25T11:17:25.458Z,65.47
2023-03-25T11:20:11.050Z,64.54
2023-03-25T11:22:55.147Z,61.77
2023-03-25T11:25:34.794Z,61.42
2023-03-25T11:28:17.048Z,61.29
2023-03-25T11:31:13.225Z,61.85
2023-03-25T11:34:01.012Z,62.65
2023-03-25T11:36:38.210Z,63.19
2023-03-25T11:39:27.955Z,63.13
2023-03-25T11:42:00.176Z,60.74
2023-03-25T11:44:35.608Z,60.87
2023-03-25T11:47:12.477Z,61.58
2023-03-25T11:49:49.261Z,61.51
2023-03-25T11:52:26.644Z,61.09
2023-03-25T11:55:01.607Z,60.90
2023-03-25T11:57:42.706Z,61.70
2023-03-25T12:00:32.649Z,62.52
2023-03-25T12:03:20.079Z,62.72
2023-03-25T12:06:06.503Z,62.51
2023-03-25T12:08:52.787Z,61.92
2023-03-25T12:11:33.414Z,61.53
2023-03-25T12:14:29.756Z,61.71
2023-03-25T12:17:17.715Z,62.42
2023-03-25T12:20:00.136Z,62.44
2023-03-25T12:22:58.183Z,61.16
2023-03-25T12:25:37.605Z,62.21
2023-03-25T12:28:34.004Z,62.81
2023-03-25T12:31:19.533Z,62.32
2023-03-25T12:34:08.621Z,61.32
2023-03-25T12:37:01.612Z,61.90
2023-03-25T12:39:51.221Z,60.49
2023-03-25T12:42:43.601Z,61.03
2023-03-25T12:45:43.710Z,61.29
2023-03-25T12:48:30.132Z,62.43
2023-03-25T12:51:14.626Z,62.23
2023-03-25T12:54:00.454Z,63.04
2023-03-25T12:56:53.344Z,64.27
2023-03-25T13:00:25.568Z,63.05
2023-03-25T13:03:34.911Z,63.67
2023-03-25T13:06:22.549Z,64.07
2023-03-25T13:09:04.439Z,66.21
2023-03-25T13:11:46.921Z,66.08
2023-03-25T13:14:26.908Z,64.94
2023-03-25T13:17:05.490Z,63.72
2023-03-25T13:19:44.212Z,63.29
2023-03-25T13:22:28.467Z,61.68
2023-03-25T13:25:07.281Z,61.44
2023-03-25T13:27:43.233Z,61.63
2023-03-25T13:30:29.512Z,63.08
2023-03-25T13:33:13.688Z,63.66
2023-03-25T13:35:54.696Z,62.94
2023-03-25T13:38:33.478Z,64.69
2023-03-25T13:41:17.525Z,63.62
2023-03-25T13:44:01.460Z,62.81
2023-03-25T13:46:42.855Z,63.20
2023-03-25T13:49:24.734Z,62.63
2023-03-25T13:51:56.329Z,63.85
2023-03-25T13:54:39.924Z,64.28
2023-03-25T13:58:10.165Z,62.30
2023-03-25T14:01:36.824Z,63.78
2023-03-25T14:04:48.175Z,72.10
2023-03-25T14:08:13.293Z,73.90
2023-03-25T14:10:55.061Z,75.41
2023-03-25T14:13:36.554Z,76.07
2023-03-25T14:16:16.021Z,75.96
2023-03-25T14:18:51.482Z,76.88
2023-03-25T14:21:41.116Z,77.23
2023-03-25T14:24:21.166Z,77.05
2023-03-25T14:27:00.372Z,77.69
2023-03-25T14:29:42.236Z,79.04
2023-03-25T14:32:38.574Z,78.33
2023-03-25T14:35:58.544Z,77.62
2023-03-25T14:38:53.951Z,76.31
2023-03-25T14:41:58.431Z,76.64
2023-03-25T14:44:33.776Z,76.83
2023-03-25T14:47:30.176Z,76.37
2023-03-25T14:50:32.769Z,76.43
2023-03-25T14:53:11.560Z,75.33
2023-03-25T14:55:49.733Z,76.71
2023-03-25T14:58:28.076Z,76.57
2023-03-25T15:01:07.598Z,75.43
2023-03-25T15:03:44.510Z,74.71
2023-03-25T15:06:33.792Z,75.02
2023-03-25T15:09:13.051Z,74.85
2023-03-25T15:11:55.537Z,75.39
2023-03-25T15:14:32.979Z,75.16
2023-03-25T15:17:13.673Z,76.45
2023-03-25T15:20:29.173Z,76.77
2023-03-25T15:23:36.810Z,79.11
2023-03-25T15:26:15.012Z,78.15
2023-03-25T15:29:24.015Z,80.06
2023-03-25T15:32:08.858Z,79.53
2023-03-25T15:35:06.075Z,80.11
2023-03-25T15:38:17.638Z,80.41
2023-03-25T15:41:14.615Z,81.42
2023-03-25T15:44:07.771Z,81.32
2023-03-25T15:47:00.689Z,81.00
2023-03-25T15:50:08.268Z,81.59
2023-03-25T15:53:08.590Z,81.55
2023-03-25T15:55:45.379Z,82.23
2023-03-25T15:58:33.359Z,82.16
2023-03-25T16:01:18.841Z,82.47
2023-03-25T16:03:57.778Z,82.37
2023-03-25T16:06:32.289Z,82.28
2023-03-25T16:09:07.519Z,82.21
2023-03-25T16:11:45.400Z,81.77
2023-03-25T16:14:19.268Z,80.90
2023-03-25T16:16:56.497Z,81.15
2023-03-25T16:19:35.512Z,81.20
2023-03-25T16:22:16.736Z,81.96
2023-03-25T16:24:52.359Z,80.51
2023-03-25T16:27:31.379Z,80.80
2023-03-25T16:30:03.560Z,81.89
2023-03-25T16:32:39.042Z,81.88
2023-03-25T16:35:20.800Z,82.05
2023-03-25T16:37:57.955Z,81.45
2023-03-25T16:40:39.943Z,81.69
2023-03-25T16:43:17.560Z,82.12
2023-03-25T16:45:52.526Z,81.27
2023-03-25T16:48:31.117Z,82.13
2023-03-25T16:51:12.037Z,82.18
2023-03-25T16:53:44.946Z,81.66
2023-03-25T16:56:32.836Z,81.49
2023-03-25T16:59:16.847Z,82.11
2023-03-25T17:01:55.487Z,80.97
2023-03-25T17:04:39.285Z,80.72
2023-03-25T17:07:20.903Z,81.33
2023-03-25T17:09:59.680Z,80.68
2023-03-25T17:12:35.565Z,80.38
2023-03-25T17:15:16.492Z,80.40
2023-03-25T17:17:54.784Z,81.05
2023-03-25T17:20:34.619Z,80.83
2023-03-25T17:23:20.097Z,80.36
2023-03-25T17:25:58.525Z,79.49
2023-03-25T17:28:39.004Z,79.96
2023-03-25T17:31:27.919Z,79.46
2023-03-25T17:34:08.758Z,79.80
2023-03-25T17:36:45.296Z,79.01
2023-03-25T17:39:24.710Z,78.69
2023-03-25T17:42:02.879Z,79.11
2023-03-25T17:44:41.118Z,78.50
2023-03-25T17:47:17.484Z,78.33
2023-03-25T17:49:49.478Z,78.38
2023-03-25T17:52:21.418Z,78.27
2023-03-25T17:54:53.210Z,78.10
2023-03-25T17:57:25.085Z,78.41
2023-03-25T17:59:58.056Z,77.56
2023-03-25T18:02:31.010Z,78.60
2023-03-25T18:05:06.182Z,78.42
2023-03-25T18:07:38.192Z,77.92
2023-03-25T18:10:19.365Z,76.64
2023-03-25T18:12:50.956Z,75.88
2023-03-25T18:15:24.934Z,76.67
2023-03-25T18:17:56.568Z,75.28
2023-03-25T18:20:33.552Z,75.04
2023-03-25T18:23:07.192Z,76.60
2023-03-25T18:25:39.097Z,78.21
2023-03-25T18:28:13.277Z,78.70
2023-03-25T18:30:51.592Z,79.95
2023-03-25T18:33:24.684Z,80.29
2023-03-25T18:35:59.325Z,79.91
2023-03-25T18:38:32.530Z,79.70
2023-03-25T18:41:04.509Z,80.77
2023-03-25T18:43:36.337Z,80.50
2023-03-25T18:46:12.409Z,80.32
2023-03-25T18:48:44.293Z,80.64
2023-03-25T18:51:16.955Z,79.78
2023-03-25T18:53:49.350Z,79.25
2023-03-25T18:56:21.771Z,79.90
2023-03-25T18:58:53.654Z,79.51
2023-03-25T19:01:26.768Z,80.20
2023-03-25T19:04:02.494Z,79.32
2023-03-25T19:06:34.852Z,79.42
2023-03-25T19:09:09.140Z,79.43
2023-03-25T19:11:41.238Z,79.50
2023-03-25T19:14:13.091Z,79.08
2023-03-25T19:16:57.094Z,79.54
2023-03-25T19:19:29.310Z,80.33
2023-03-25T19:22:01.144Z,80.53
2023-03-25T19:24:33.101Z,80.21
2023-03-25T19:27:05.224Z,79.27
2023-03-25T19:29:37.931Z,79.54
2023-03-25T19:32:10.973Z,79.81
2023-03-25T19:34:47.737Z,79.20
2023-03-25T19:37:19.948Z,79.53
2023-03-25T19:39:52.062Z,79.46
2023-03-25T19:42:23.637Z,79.05
2023-03-25T19:44:58.452Z,79.09
2023-03-25T19:47:31.409Z,79.47
2023-03-25T19:50:03.464Z,79.28
2023-03-25T19:52:35.491Z,78.82
2023-03-25T19:55:08.285Z,79.27
2023-03-25T19:57:42.025Z,79.00
2023-03-25T20:00:16.196Z,78.99
2023-03-25T20:02:52.481Z,78.76
2023-03-25T20:05:26.133Z,78.86
2023-03-25T20:07:58.519Z,78.66
2023-03-25T20:10:32.174Z,79.22
2023-03-25T20:13:04.237Z,79.18
2023-03-25T20:15:36.480Z,78.84
2023-03-25T20:18:10.594Z,79.44
2023-03-25T20:20:42.326Z,78.99
2023-03-25T20:23:14.156Z,79.37
2023-03-25T20:25:48.201Z,79.25
2023-03-25T20:28:19.940Z,79.68
2023-03-25T20:30:52.269Z,79.64
2023-03-25T20:33:27.350Z,79.25
2023-03-25T20:35:59.263Z,79.59
2023-03-25T20:38:31.209Z,80.08
2023-03-25T20:41:03.552Z,79.58
2023-03-25T20:43:35.884Z,79.04
2023-03-25T20:46:10.202Z,79.51
2023-03-25T20:48:43.494Z,79.30
2023-03-25T20:51:15.456Z,79.40
2023-03-25T20:53:48.476Z,79.38
2023-03-25T20:56:20.204Z,79.11
2023-03-25T20:58:52.047Z,79.73
2023-03-25T21:01:24.095Z,79.79
2023-03-25T21:03:58.479Z,79.47
2023-03-25T21:06:30.063Z,79.69
2023-03-25T21:09:07.039Z,79.54
2023-03-25T21:11:40.606Z,79.54
2023-03-25T21:14:14.276Z,79.83
2023-03-25T21:16:46.582Z,79.45
2023-03-25T21:19:20.412Z,79.34
2023-03-25T21:21:52.285Z,79.68
2023-03-25T21:24:23.876Z,79.15
2023-03-25T21:26:55.883Z,79.51
2023-03-25T21:29:27.772Z,79.37
2023-03-25T21:31:59.486Z,79.46
2023-03-25T21:34:32.654Z,79.65
2023-03-25T21:37:04.630Z,79.17
2023-03-25T21:39:36.579Z,79.39
2023-03-25T21:42:09.911Z,78.43
2023-03-25T21:44:43.295Z,79.32
2023-03-25T21:47:17.660Z,79.42
2023-03-25T21:49:51.039Z,79.68
2023-03-25T21:52:26.254Z,79.77
2023-03-25T21:54:59.257Z,79.04
2023-03-25T21:57:31.844Z,79.12
2023-03-25T22:00:04.887Z,79.06
2023-03-25T22:02:36.897Z,78.81
2023-03-25T22:05:12.530Z,79.60
2023-03-25T22:07:44.923Z,79.90
2023-03-25T22:10:16.839Z,79.33
2023-03-25T22:12:48.716Z,79.42
2023-03-25T22:15:20.698Z,79.82
2023-03-25T22:17:52.558Z,79.05
2023-03-25T22:20:25.854Z,80.24
2023-03-25T22:22:57.773Z,80.54
2023-03-25T22:25:29.712Z,80.69
2023-03-25T22:28:01.521Z,81.46
2023-03-25T22:30:33.386Z,81.56
2023-03-25T22:33:05.723Z,81.46
2023-03-25T22:35:38.886Z,81.35
2023-03-25T22:38:10.733Z,80.42
2023-03-25T22:40:42.570Z,80.59
2023-03-25T22:43:14.520Z,81.00
2023-03-25T22:45:47.391Z,81.22
2023-03-25T22:48:19.261Z,81.28
2023-03-25T22:50:52.230Z,81.10
2023-03-25T22:53:24.333Z,81.42
2023-03-25T22:55:58.246Z,81.66
2023-03-25T22:58:32.745Z,82.16
2023-03-25T23:01:19.377Z,81.76
2023-03-25T23:03:51.414Z,81.97
2023-03-25T23:06:26.903Z,82.14
2023-03-25T23:09:01.693Z,81.99
2023-03-25T23:11:36.558Z,81.95
2023-03-25T23:14:12.981Z,82.27
2023-03-25T23:16:45.198Z,81.97
2023-03-25T23:19:16.797Z,81.69
2023-03-25T23:21:49.751Z,82.17
2023-03-25T23:24:21.661Z,81.95
2023-03-25T23:26:53.453Z,81.96
2023-03-25T23:29:26.302Z,81.68
2023-03-25T23:31:58.197Z,82.51
2023-03-25T23:34:29.927Z,82.19
2023-03-25T23:37:02.931Z,82.79
2023-03-25T23:39:35.003Z,82.76
2023-03-25T23:42:06.773Z,82.61
2023-03-25T23:44:38.510Z,83.31
2023-03-25T23:47:10.271Z,82.60
2023-03-25T23:49:44.142Z,82.92
2023-03-25T23:52:17.289Z,83.00
2023-03-25T23:54:48.959Z,83.35
2023-03-25T23:57:20.775Z,82.71
2023-03-25T23:59:52.614Z,82.55
